Time;durP1;ratioP1;P1;durP2;ratioP2;P2;SDS_P1;SDS_P2;PMS_P1;PMS_P2;Temp;Humidity;BMP_temperature;BMP_pressure;BME280_temperature;BME280_humidity;BME280_pressure;Samples;Min_cycle;Max_cycle;Signal;HPM_P1;HPM_P2
2024/02/02 00:01:08;;;;;;;33.38;31.02;;;;;;;-4.06;100.00;101645.25;5029626;28;20399;-62
2024/02/02 00:03:35;;;;;;;46.97;37.90;;;;;;;-4.01;100.00;101639.78;5014739;28;20050;-65
2024/02/02 00:06:02;;;;;;;33.47;30.88;;;;;;;-3.86;100.00;101644.09;5023700;28;20176;-65
2024/02/02 00:08:29;;;;;;;34.72;31.52;;;;;;;-4.07;100.00;101646.16;5017129;28;20734;-64
2024/02/02 00:10:58;;;;;;;32.78;30.50;;;;;;;-3.97;100.00;101646.47;5023989;28;20056;-64
2024/02/02 00:13:25;;;;;;;33.63;31.10;;;;;;;-4.44;100.00;101632.72;5023276;28;20572;-65
2024/02/02 00:15:53;;;;;;;34.42;32.03;;;;;;;-4.34;100.00;101635.63;5023573;28;20057;-62
2024/02/02 00:18:20;;;;;;;35.50;32.90;;;;;;;-4.18;100.00;101639.00;5014331;28;20144;-63
2024/02/02 00:20:47;;;;;;;35.50;33.00;;;;;;;-4.16;100.00;101646.69;5039602;28;20075;-63
2024/02/02 00:23:14;;;;;;;34.60;32.20;;;;;;;-4.19;100.00;101644.28;5023503;28;20045;-63
2024/02/02 00:25:41;;;;;;;41.15;37.80;;;;;;;-4.31;100.00;101639.81;5032517;28;20140;-64
2024/02/02 00:28:10;;;;;;;36.90;34.20;;;;;;;-4.27;100.00;101628.31;5020049;28;20053;-63
2024/02/02 00:30:37;;;;;;;34.20;31.48;;;;;;;-4.16;100.00;101639.75;5018796;28;20057;-65
2024/02/02 00:33:06;;;;;;;33.33;30.75;;;;;;;-4.29;100.00;101645.75;5023128;28;20564;-65
2024/02/02 00:35:32;;;;;;;31.48;29.17;;;;;;;-4.26;100.00;101632.59;5018151;28;20077;-64
2024/02/02 00:37:58;;;;;;;35.83;32.97;;;;;;;-4.13;100.00;101640.50;5021367;28;20053;-62
2024/02/02 00:40:25;;;;;;;39.13;36.15;;;;;;;-4.23;100.00;101638.44;5030715;28;20429;-63
2024/02/02 00:42:52;;;;;;;35.10;32.30;;;;;;;-4.41;100.00;101642.09;5020433;28;20055;-62
2024/02/02 00:45:21;;;;;;;37.30;34.00;;;;;;;-4.48;100.00;101638.16;5026541;28;20081;-62
2024/02/02 00:47:49;;;;;;;38.47;35.13;;;;;;;-4.49;100.00;101639.91;5021218;28;20063;-64
2024/02/02 00:50:16;;;;;;;46.75;43.72;;;;;;;-4.67;100.00;101640.94;5036999;28;20044;-64
2024/02/02 00:52:43;;;;;;;36.45;33.95;;;;;;;-4.51;100.00;101643.50;5022880;28;20484;-62
2024/02/02 00:55:11;;;;;;;34.58;32.05;;;;;;;-4.42;100.00;101645.56;5017566;28;20133;-62
2024/02/02 00:57:37;;;;;;;37.78;34.00;;;;;;;-4.16;100.00;101636.31;5023107;28;20107;-64
2024/02/02 01:00:06;;;;;;;29.83;27.73;;;;;;;-4.00;100.00;101638.88;5027609;28;20136;-63
2024/02/02 01:02:37;;;;;;;35.58;33.08;;;;;;;-4.13;100.00;101627.53;5028624;28;20060;-65
2024/02/02 01:05:05;;;;;;;34.60;31.90;;;;;;;-4.17;100.00;101630.31;5019682;28;20172;-65
2024/02/02 01:07:32;;;;;;;33.80;31.55;;;;;;;-4.35;100.00;101618.38;5025781;28;20115;-64
2024/02/02 01:09:59;;;;;;;37.42;34.92;;;;;;;-4.30;100.00;101610.31;5026010;28;20056;-62
2024/02/02 01:12:26;;;;;;;33.88;31.63;;;;;;;-4.19;100.00;101607.97;5016933;28;20046;-64
2024/02/02 01:14:54;;;;;;;35.25;32.50;;;;;;;-4.28;100.00;101614.50;5028207;28;20057;-63
2024/02/02 01:17:21;;;;;;;34.30;32.00;;;;;;;-4.30;100.00;101608.56;5018465;28;20045;-65
2024/02/02 01:19:49;;;;;;;37.25;34.95;;;;;;;-4.18;100.00;101607.03;5030058;28;20053;-64
2024/02/02 01:22:16;;;;;;;37.60;35.20;;;;;;;-4.22;100.00;101608.97;5023286;28;20148;-64
2024/02/02 01:24:43;;;;;;;33.60;31.40;;;;;;;-4.09;100.00;101611.69;5021956;28;20181;-62
2024/02/02 01:27:10;;;;;;;35.17;32.67;;;;;;;-4.05;100.00;101602.81;5024411;28;20060;-63
2024/02/02 01:29:37;;;;;;;36.08;33.65;;;;;;;-4.01;100.00;101614.69;5028449;28;20136;-64
2024/02/02 01:32:07;;;;;;;35.08;32.72;;;;;;;-4.07;100.00;101606.41;5030034;28;20060;-64
2024/02/02 01:34:34;;;;;;;32.25;30.00;;;;;;;-4.21;100.00;101604.63;5023366;28;20139;-63
2024/02/02 01:37:02;;;;;;;34.05;31.65;;;;;;;-4.10;100.00;101602.25;5021388;28;20147;-63
2024/02/02 01:39:29;;;;;;;35.75;32.90;;;;;;;-4.12;100.00;101609.25;5024498;28;20749;-62
2024/02/02 01:41:56;;;;;;;33.78;31.38;;;;;;;-4.06;100.00;101610.69;5021960;28;20057;-64
2024/02/02 01:44:23;;;;;;;33.38;30.98;;;;;;;-4.19;100.00;101602.78;5026669;28;20517;-64
2024/02/02 01:46:53;;;;;;;31.58;29.27;;;;;;;-4.24;100.00;101603.03;5025289;28;20136;-64
2024/02/02 01:49:20;;;;;;;32.72;30.33;;;;;;;-4.26;100.00;101599.72;5020879;28;20059;-63
2024/02/02 01:51:47;;;;;;;36.85;34.15;;;;;;;-4.45;100.00;101596.47;5029283;28;20063;-62
2024/02/02 01:54:16;;;;;;;39.35;36.55;;;;;;;-4.33;100.00;101600.13;5020879;28;20557;-64
2024/02/02 01:56:43;;;;;;;35.03;32.42;;;;;;;-4.36;100.00;101598.53;5023353;28;20056;-63
2024/02/02 01:59:10;;;;;;;37.47;34.70;;;;;;;-4.50;100.00;101601.09;5018370;28;20120;-62
2024/02/02 02:01:37;;;;;;;38.63;36.17;;;;;;;-4.44;100.00;101599.00;5026451;28;20410;-62
2024/02/02 02:04:05;;;;;;;39.70;37.10;;;;;;;-4.28;100.00;101601.53;5024561;28;20054;-63
2024/02/02 02:06:32;;;;;;;35.30;32.90;;;;;;;-4.56;100.00;101602.28;5021849;28;20055;-65
2024/02/02 02:08:59;;;;;;;38.05;35.35;;;;;;;-4.37;100.00;101600.31;5017000;28;20052;-64
2024/02/02 02:11:28;;;;;;;37.72;35.05;;;;;;;-4.10;100.00;101598.81;5024067;28;20041;-62
2024/02/02 02:13:55;;;;;;;35.65;33.35;;;;;;;-3.99;100.00;101596.44;5015984;28;20068;-65
2024/02/02 02:16:22;;;;;;;34.55;32.35;;;;;;;-3.99;100.00;101597.25;5025083;28;20057;-65
2024/02/02 02:18:49;;;;;;;33.78;31.58;;;;;;;-3.96;100.00;101606.63;5020600;28;20424;-65
2024/02/02 02:21:27;;;;;;;34.33;31.92;;;;;;;-3.84;100.00;101605.03;5017537;28;20568;-65
2024/02/02 02:23:55;;;;;;;36.65;34.08;;;;;;;-3.91;100.00;101591.59;5015914;28;20061;-63
2024/02/02 02:26:26;;;;;;;41.95;39.05;;;;;;;-3.98;100.00;101595.50;5021038;28;20417;-65
2024/02/02 02:28:53;;;;;;;37.60;34.65;;;;;;;-4.02;100.00;101588.81;5024550;28;20049;-64
2024/02/02 02:31:19;;;;;;;36.47;33.88;;;;;;;-3.95;100.00;101590.94;5027899;28;20768;-63
2024/02/02 02:33:47;;;;;;;36.95;34.35;;;;;;;-3.96;100.00;101598.84;5022045;28;20057;-62
2024/02/02 02:36:14;;;;;;;34.13;31.65;;;;;;;-4.22;100.00;101600.34;5023104;28;20060;-62
2024/02/02 02:38:44;;;;;;;33.67;31.48;;;;;;;-4.41;100.00;101598.00;5020305;28;20057;-62
2024/02/02 02:41:11;;;;;;;32.78;30.67;;;;;;;-4.57;100.00;101586.81;5016353;28;20139;-65
2024/02/02 02:43:38;;;;;;;42.42;39.65;;;;;;;-4.67;100.00;101602.88;5022913;28;20057;-65
2024/02/02 02:46:06;;;;;;;38.15;35.75;;;;;;;-4.58;100.00;101608.47;5016941;28;20080;-65
2024/02/02 02:48:33;;;;;;;37.60;35.10;;;;;;;-4.57;100.00;101600.59;5023726;28;20148;-62
2024/02/02 02:51:00;;;;;;;38.38;35.55;;;;;;;-4.37;100.00;101595.13;5019497;28;20056;-65
2024/02/02 02:53:27;;;;;;;38.50;36.00;;;;;;;-4.40;100.00;101597.88;5019004;28;20089;-62
2024/02/02 02:55:56;;;;;;;46.25;39.25;;;;;;;-4.44;100.00;101593.81;5016363;28;20068;-62
2024/02/02 02:58:23;;;;;;;38.28;35.67;;;;;;;-4.36;100.00;101590.75;5020533;28;20054;-63
2024/02/02 03:00:52;;;;;;;40.78;37.60;;;;;;;-4.33;100.00;101600.97;5017954;28;20144;-64
2024/02/02 03:03:19;;;;;;;41.60;38.95;;;;;;;-4.21;100.00;101597.66;5013588;28;20055;-65
2024/02/02 03:05:46;;;;;;;38.17;35.78;;;;;;;-4.28;100.00;101604.13;5024649;28;20067;-62
2024/02/02 03:08:13;;;;;;;37.97;35.67;;;;;;;-4.45;100.00;101602.53;5020747;28;20140;-62
2024/02/02 03:10:41;;;;;;;41.35;38.85;;;;;;;-4.54;100.00;101600.41;5014869;28;20057;-63
2024/02/02 03:13:10;;;;;;;43.50;40.28;;;;;;;-4.63;100.00;101612.19;5015726;28;20115;-64
2024/02/02 03:15:39;;;;;;;40.90;32.17;;;;;;;-4.67;100.00;101608.06;5015247;28;20061;-65
2024/02/02 03:18:06;;;;;;;38.60;34.80;;;;;;;-4.49;100.00;101608.78;5017778;28;20057;-62
2024/02/02 03:20:34;;;;;;;36.40;33.67;;;;;;;-4.47;100.00;101609.53;5014865;28;20059;-62
2024/02/02 03:23:01;;;;;;;36.50;34.13;;;;;;;-4.33;100.00;101606.16;5024979;28;20496;-63
2024/02/02 03:25:28;;;;;;;38.00;34.97;;;;;;;-4.33;100.00;101616.53;5015842;28;20049;-63
2024/02/02 03:27:55;;;;;;;41.22;38.22;;;;;;;-4.13;100.00;101615.38;5013645;28;20057;-63
2024/02/02 03:30:23;;;;;;;42.15;39.15;;;;;;;-4.22;100.00;101614.16;5025226;28;20091;-65
2024/02/02 03:32:50;;;;;;;41.10;38.03;;;;;;;-4.04;100.00;101617.44;5024545;28;20579;-65
2024/02/02 03:35:17;;;;;;;39.72;36.83;;;;;;;-3.95;100.00;101614.31;5010940;28;20140;-65
2024/02/02 03:37:44;;;;;;;37.53;34.92;;;;;;;-3.81;100.00;101615.25;5023411;28;20054;-65
2024/02/02 03:40:13;;;;;;;42.97;40.17;;;;;;;-3.77;100.00;101608.97;5017628;28;20054;-65
2024/02/02 03:42:40;;;;;;;40.45;37.78;;;;;;;-3.76;100.00;101608.84;5022580;28;20053;-64
2024/02/02 03:45:08;;;;;;;37.78;35.17;;;;;;;-3.70;100.00;101611.09;5012969;28;20056;-65
2024/02/02 03:47:36;;;;;;;38.78;36.15;;;;;;;-3.73;100.00;101613.88;5022708;28;20076;-64
2024/02/02 03:50:03;;;;;;;39.20;36.60;;;;;;;-3.66;100.00;101611.78;5024316;28;20095;-64
2024/02/02 03:52:30;;;;;;;39.80;36.80;;;;;;;-3.56;100.00;101622.44;5032102;28;20059;-64
2024/02/02 03:54:57;;;;;;;45.60;42.20;;;;;;;-3.49;100.00;101624.56;5022817;28;20077;-65
2024/02/02 03:57:24;;;;;;;44.88;41.60;;;;;;;-3.33;100.00;101624.47;5018199;28;20050;-65
2024/02/02 03:59:51;;;;;;;42.17;39.08;;;;;;;-3.41;100.00;101629.28;5020232;28;20133;-64
2024/02/02 04:02:18;;;;;;;38.80;36.08;;;;;;;-3.30;100.00;101626.03;5036865;28;20061;-65
2024/02/02 04:04:47;;;;;;;40.28;36.08;;;;;;;-3.32;100.00;101636.53;5027112;28;20057;-62
2024/02/02 04:07:14;;;;;;;36.88;34.28;;;;;;;-3.26;100.00;101635.31;5018406;28;20096;-62
2024/02/02 04:09:41;;;;;;;36.33;32.72;;;;;;;-2.98;100.00;101626.66;5025355;28;20566;-63
2024/02/02 04:12:08;;;;;;;39.20;36.20;;;;;;;-2.38;100.00;101636.69;5020395;28;20140;-65
2024/02/02 04:14:35;;;;;;;45.42;42.13;;;;;;;-2.78;100.00;101639.22;5021593;28;20560;-63
2024/02/02 04:17:02;;;;;;;45.90;42.45;;;;;;;-2.64;100.00;101647.91;5025796;28;20051;-62
2024/02/02 04:19:29;;;;;;;45.28;41.88;;;;;;;-2.86;100.00;101646.66;5025529;28;20083;-65
2024/02/02 04:21:57;;;;;;;43.60;40.25;;;;;;;-2.59;100.00;101651.91;5025217;28;20103;-64
2024/02/02 04:24:24;;;;;;;49.38;45.17;;;;;;;-2.43;100.00;101646.53;5027269;28;20140;-63
2024/02/02 04:26:51;;;;;;;43.95;40.58;;;;;;;-2.35;100.00;101640.84;5025380;28;20536;-65
2024/02/02 04:29:18;;;;;;;47.15;43.63;;;;;;;-2.12;100.00;101655.81;5017292;28;20057;-63
2024/02/02 04:31:45;;;;;;;49.95;46.30;;;;;;;-2.09;100.00;101662.56;5034453;28;20194;-63
2024/02/02 04:34:12;;;;;;;50.15;46.45;;;;;;;-2.17;100.00;101664.84;5036993;28;20060;-65
2024/02/02 04:36:40;;;;;;;51.83;48.05;;;;;;;-1.95;100.00;101661.66;5030508;28;20573;-63
2024/02/02 04:39:09;;;;;;;49.88;46.33;;;;;;;-1.96;100.00;101660.84;5026900;28;20166;-63
2024/02/02 04:41:36;;;;;;;46.33;43.13;;;;;;;-1.90;100.00;101657.00;5025714;28;20049;-62
2024/02/02 04:44:03;;;;;;;52.40;47.80;;;;;;;-1.73;100.00;101661.06;5029222;28;20136;-63
2024/02/02 04:46:30;;;;;;;50.38;46.67;;;;;;;-1.77;100.00;101662.22;5032619;28;20072;-65
2024/02/02 04:48:57;;;;;;;49.67;45.90;;;;;;;-2.01;100.00;101660.28;5016718;28;20826;-65
2024/02/02 04:51:24;;;;;;;48.75;45.00;;;;;;;-1.97;100.00;101661.75;5025776;28;20085;-65
2024/02/02 04:53:51;;;;;;;51.08;46.45;;;;;;;-1.91;100.00;101666.56;5019906;28;20136;-63
2024/02/02 04:56:20;;;;;;;44.08;40.85;;;;;;;-1.90;100.00;101677.81;5021256;28;20440;-65
2024/02/02 04:58:47;;;;;;;48.15;44.65;;;;;;;-1.70;100.00;101676.47;5017507;28;20085;-65
2024/02/02 05:01:14;;;;;;;51.20;46.65;;;;;;;-1.73;100.00;101687.09;5024634;28;20047;-64
2024/02/02 05:03:41;;;;;;;62.90;56.85;;;;;;;1.44;100.00;101687.34;5034675;28;20092;-63
2024/02/02 05:06:08;;;;;;;43.53;40.33;;;;;;;-0.50;100.00;101693.31;5022750;28;20647;-65
2024/02/02 05:08:35;;;;;;;41.53;38.40;;;;;;;-1.33;100.00;101698.31;5020918;28;20489;-63
2024/02/02 05:11:02;;;;;;;44.45;41.10;;;;;;;-1.48;100.00;101696.75;5016579;28;20137;-65
2024/02/02 05:13:30;;;;;;;44.50;41.10;;;;;;;-1.79;100.00;101700.53;5017990;28;20835;-64
2024/02/02 05:15:57;;;;;;;49.58;45.58;;;;;;;-1.92;100.00;101700.53;5018720;28;20416;-65
2024/02/02 05:18:24;;;;;;;51.13;47.53;;;;;;;-2.03;100.00;101700.38;5018520;28;20080;-63
2024/02/02 05:20:51;;;;;;;55.42;51.25;;;;;;;-2.01;100.00;101707.16;5019652;28;20081;-65
2024/02/02 05:23:18;;;;;;;54.30;50.20;;;;;;;-2.22;100.00;101713.75;5023411;28;20140;-65
2024/02/02 05:25:45;;;;;;;48.95;45.55;;;;;;;-2.16;100.00;101723.78;5022741;28;20415;-63
2024/02/02 05:28:12;;;;;;;51.88;48.38;;;;;;;-2.02;100.00;101725.50;5022238;28;20057;-63
2024/02/02 05:30:41;;;;;;;53.10;49.38;;;;;;;-1.92;100.00;101731.78;5024839;28;20096;-63
2024/02/02 05:33:08;;;;;;;50.67;46.95;;;;;;;-1.88;100.00;101735.84;5025756;28;20083;-63
2024/02/02 05:35:35;;;;;;;57.58;53.47;;;;;;;-1.83;100.00;101738.16;5025365;28;20045;-63
2024/02/02 05:38:02;;;;;;;55.85;51.95;;;;;;;-1.79;100.00;101740.44;5025633;28;20066;-63
2024/02/02 05:40:29;;;;;;;57.55;53.40;;;;;;;-1.56;100.00;101744.13;5021296;28;20060;-63
2024/02/02 05:42:56;;;;;;;55.97;52.10;;;;;;;-1.57;100.00;101752.91;5022053;28;20049;-63
2024/02/02 05:45:23;;;;;;;58.22;53.85;;;;;;;-1.54;100.00;101757.06;5018552;28;20053;-63
2024/02/02 05:47:52;;;;;;;57.60;53.45;;;;;;;-1.53;100.00;101762.19;5012936;28;20061;-63
2024/02/02 05:50:19;;;;;;;51.83;47.92;;;;;;;-1.53;100.00;101772.59;5025816;28;20147;-63
2024/02/02 05:52:46;;;;;;;60.00;56.10;;;;;;;-1.51;100.00;101783.78;4980007;28;20436;-63
2024/02/02 05:55:13;;;;;;;59.70;55.85;;;;;;;-1.31;100.00;101786.81;5029767;28;20733;-63
2024/02/02 05:57:40;;;;;;;58.45;54.75;;;;;;;-1.22;100.00;101801.81;5024973;28;20152;-63
2024/02/02 06:00:08;;;;;;;63.10;58.85;;;;;;;-1.15;100.00;101803.06;5024872;28;20481;-63
2024/02/02 06:02:35;;;;;;;70.70;65.93;;;;;;;-1.22;100.00;101810.47;5022998;28;20056;-63
2024/02/02 06:05:04;;;;;;;65.35;61.28;;;;;;;-1.19;100.00;101812.88;5024705;28;20045;-63
2024/02/02 06:07:30;;;;;;;65.70;61.42;;;;;;;-1.25;100.00;101815.06;5021273;28;20168;-63
2024/02/02 06:09:57;;;;;;;62.83;58.72;;;;;;;-1.27;100.00;101820.41;5024119;28;20505;-63
2024/02/02 06:12:24;;;;;;;65.13;60.83;;;;;;;-1.36;100.00;101815.81;5024567;28;20539;-63
2024/02/02 06:14:52;;;;;;;65.55;61.17;;;;;;;-1.55;100.00;101826.56;5024755;28;20071;-63
2024/02/02 06:17:19;;;;;;;63.38;58.45;;;;;;;-1.56;100.00;101824.09;5024293;28;20056;-63
2024/02/02 06:19:45;;;;;;;58.60;54.80;;;;;;;-1.34;100.00;101833.94;5025283;28;20140;-63
2024/02/02 06:22:14;;;;;;;61.15;56.65;;;;;;;-1.27;100.00;101835.19;5022015;28;20144;-65
2024/02/02 06:24:41;;;;;;;57.15;53.17;;;;;;;-1.20;100.00;101831.25;5023829;28;20128;-63
2024/02/02 06:27:08;;;;;;;62.17;57.83;;;;;;;-1.11;100.00;101833.25;5024119;28;20061;-65
2024/02/02 06:29:35;;;;;;;66.25;61.55;;;;;;;-0.93;100.00;101831.16;5024323;28;20128;-65
2024/02/02 06:32:02;;;;;;;62.60;57.97;;;;;;;-0.90;100.00;101823.13;5024146;28;20156;-65
2024/02/02 06:34:29;;;;;;;64.10;59.38;;;;;;;-0.67;100.00;101839.81;5024285;28;20053;-65
2024/02/02 06:36:56;;;;;;;66.40;61.03;;;;;;;-0.90;100.00;101838.78;5024693;28;20052;-65
2024/02/02 06:39:25;;;;;;;67.40;62.88;;;;;;;-0.75;100.00;101845.56;5023727;28;20060;-65
2024/02/02 06:41:51;;;;;;;71.80;66.10;;;;;;;-0.68;100.00;101840.75;5023353;28;20055;-65
2024/02/02 06:44:20;;;;;;;73.45;68.00;;;;;;;-0.64;100.00;101844.81;5022802;28;20047;-65
2024/02/02 06:46:47;;;;;;;75.15;69.65;;;;;;;-0.59;100.00;101845.34;5023955;28;20148;-65
2024/02/02 06:49:14;;;;;;;71.35;66.35;;;;;;;-0.68;100.00;101835.53;5023701;28;20135;-65
2024/02/02 06:51:41;;;;;;;77.82;72.45;;;;;;;-0.42;100.00;101852.03;5023895;28;20553;-65
2024/02/02 06:54:08;;;;;;;74.47;69.18;;;;;;;-0.37;100.00;101856.91;5023438;28;20053;-65
2024/02/02 06:56:42;;;;;;;78.88;73.57;;;;;;;-0.26;100.00;101862.22;5023607;28;20058;-65
2024/02/02 06:59:10;;;;;;;84.03;77.93;;;;;;;-0.01;100.00;101861.31;5023777;28;20623;-65
2024/02/02 07:01:38;;;;;;;82.93;77.07;;;;;;;-0.02;100.00;101857.03;5024501;28;20524;-65
2024/02/02 07:04:08;;;;;;;80.38;74.85;;;;;;;0.05;100.00;101863.50;5024760;28;20136;-65
2024/02/02 07:06:35;;;;;;;88.93;82.57;;;;;;;0.18;100.00;101869.53;5023573;28;20063;-65
2024/02/02 07:09:26;;;;;;;93.32;86.75;;;;;;;0.09;100.00;101871.94;5024104;28;20154;-65
2024/02/02 07:12:00;;;;;;;93.50;87.00;;;;;;;0.41;100.00;101873.06;5023264;28;20598;-65
2024/02/02 07:14:46;;;;;;;93.82;87.03;;;;;;;0.33;100.00;101885.03;5023426;28;20115;-65
2024/02/02 07:17:36;;;;;;;103.28;95.45;;;;;;;0.56;100.00;101894.66;5029293;28;20059;-65
2024/02/02 07:20:08;;;;;;;106.40;98.97;;;;;;;0.58;100.00;101894.56;5026118;28;20644;-65
2024/02/02 07:22:39;;;;;;;;;;;;;;;0.65;100.00;101888.75;5022468;28;20048;-65
2024/02/02 07:25:07;;;;;;;106.63;99.13;;;;;;;0.58;100.00;101891.94;5023584;28;19925;-64
2024/02/02 07:27:54;;;;;;;106.40;98.70;;;;;;;0.59;100.00;101885.75;5014224;28;20080;-65
2024/02/02 07:30:51;;;;;;;114.97;106.15;;;;;;;0.72;100.00;101878.66;5046105;28;20057;-65
2024/02/02 07:33:34;;;;;;;115.28;106.63;;;;;;;0.72;100.00;101885.69;5034054;28;20087;-63
2024/02/02 07:36:02;;;;;;;122.07;112.80;;;;;;;1.03;100.00;101898.16;5050285;28;20839;-63
2024/02/02 07:38:47;;;;;;;135.00;125.15;;;;;;;1.16;100.00;101892.00;5047201;28;20055;-63
2024/02/02 07:41:15;;;;;;;140.98;131.07;;;;;;;1.24;100.00;101900.97;5043357;28;20504;-65
2024/02/02 07:43:44;;;;;;;136.30;126.53;;;;;;;1.42;100.00;101908.34;5022955;28;20203;-65
2024/02/02 07:46:12;;;;;;;127.88;119.03;;;;;;;1.29;100.00;101896.19;5024690;28;20058;-65
2024/02/02 07:48:39;;;;;;;122.45;113.65;;;;;;;1.40;100.00;101894.56;5025946;28;20061;-65
2024/02/02 07:51:06;;;;;;;127.95;119.07;;;;;;;1.42;100.00;101893.47;5023529;28;20057;-65
2024/02/02 07:53:33;;;;;;;137.50;128.10;;;;;;;1.58;100.00;101903.63;5023781;28;20140;-65
2024/02/02 07:56:00;;;;;;;131.40;122.20;;;;;;;1.69;100.00;101900.16;5025715;28;20055;-65
2024/02/02 07:58:28;;;;;;;136.10;126.25;;;;;;;1.82;100.00;101906.94;5030784;28;20129;-65
2024/02/02 08:00:59;;;;;;;139.85;130.27;;;;;;;1.96;100.00;101918.13;5012281;28;20072;-66
2024/02/02 08:03:33;;;;;;;148.48;137.77;;;;;;;2.03;100.00;101920.16;5022817;28;20053;-67
2024/02/02 08:06:00;;;;;;;134.02;124.93;;;;;;;2.09;100.00;101925.84;5018258;28;20571;-67
2024/02/02 08:08:32;;;;;;;129.20;120.25;;;;;;;2.26;100.00;101922.72;5021440;28;20049;-67
2024/02/02 08:11:00;;;;;;;133.47;124.60;;;;;;;2.36;100.00;101921.06;5013756;28;20053;-67
2024/02/02 08:13:27;;;;;;;155.90;145.18;;;;;;;2.44;100.00;101923.06;5016286;28;20842;-66
2024/02/02 08:15:55;;;;;;;156.20;145.90;;;;;;;2.68;100.00;101933.34;5016821;28;20054;-67
2024/02/02 08:18:25;;;;;;;149.95;139.85;;;;;;;2.85;100.00;101930.19;5013668;28;20061;-67
2024/02/02 08:20:52;;;;;;;167.27;157.38;;;;;;;2.81;100.00;101934.00;5021092;28;20049;-67
2024/02/02 08:23:19;;;;;;;166.65;156.60;;;;;;;2.98;100.00;101932.63;5021168;28;20058;-67
2024/02/02 08:25:46;;;;;;;168.20;157.00;;;;;;;3.24;100.00;101937.50;5021724;28;20449;-65
2024/02/02 08:28:13;;;;;;;156.50;146.73;;;;;;;3.17;100.00;101934.56;5018766;28;20059;-65
2024/02/02 08:30:40;;;;;;;139.40;130.75;;;;;;;3.28;100.00;101949.44;5018187;28;20565;-65
2024/02/02 08:33:08;;;;;;;135.63;127.28;;;;;;;3.31;100.00;101946.56;5027791;28;20801;-65
2024/02/02 08:35:35;;;;;;;134.48;126.32;;;;;;;3.37;100.00;101953.91;5021639;28;20053;-65
2024/02/02 08:38:07;;;;;;;123.30;115.28;;;;;;;3.37;100.00;101956.56;5021489;28;20067;-65
2024/02/02 08:40:38;;;;;;;110.90;103.90;;;;;;;3.34;100.00;101968.13;5017757;28;20056;-67
2024/02/02 08:43:05;;;;;;;111.72;104.63;;;;;;;3.34;100.00;101967.31;5024250;28;20111;-67
2024/02/02 08:46:13;;;;;;;116.10;109.03;;;;;;;3.41;100.00;101969.28;5022547;28;20057;-67
2024/02/02 08:48:48;;;;;;;108.10;101.35;;;;;;;3.38;100.00;101964.28;5024299;28;20148;-66
2024/02/02 08:51:47;;;;;;;120.13;112.85;;;;;;;3.47;100.00;101969.75;5024373;28;20626;-67
2024/02/02 08:54:36;;;;;;;118.85;111.70;;;;;;;3.49;100.00;101965.19;5019832;28;20130;-67
2024/02/02 08:57:30;;;;;;;118.07;110.78;;;;;;;3.56;100.00;101971.59;5020395;28;20054;-67
2024/02/02 09:00:04;;;;;;;115.32;108.38;;;;;;;3.56;100.00;101975.03;5008728;28;20477;-67
2024/02/02 09:02:54;;;;;;;119.63;112.32;;;;;;;3.65;100.00;101982.16;5016832;28;20131;-67
2024/02/02 09:05:24;;;;;;;115.22;108.22;;;;;;;3.65;100.00;101991.81;4980304;28;20061;-66
2024/02/02 09:07:53;;;;;;;124.68;116.97;;;;;;;3.63;100.00;101994.59;5020035;28;20049;-67
2024/02/02 09:10:57;;;;;;;115.70;108.65;;;;;;;3.68;100.00;101996.81;5019514;28;20517;-67
2024/02/02 09:13:25;;;;;;;117.40;110.22;;;;;;;3.62;100.00;101992.09;5021102;28;20052;-67
2024/02/02 09:15:54;;;;;;;111.07;104.30;;;;;;;3.56;100.00;101996.06;5020970;28;20061;-67
2024/02/02 09:18:32;;;;;;;113.10;106.20;;;;;;;3.56;100.00;101997.84;5023445;28;20092;-67
2024/02/02 09:21:01;;;;;;;110.55;103.75;;;;;;;3.53;100.00;102003.38;5017848;28;20065;-67
2024/02/02 09:23:32;;;;;;;112.72;105.93;;;;;;;3.55;100.00;102004.91;5022915;28;20057;-67
2024/02/02 09:26:00;;;;;;;105.93;99.43;;;;;;;3.56;100.00;102009.19;5019346;28;20529;-65
2024/02/02 09:28:40;;;;;;;102.82;96.63;;;;;;;3.51;100.00;102002.66;5026548;28;20045;-65
2024/02/02 09:31:12;;;;;;;102.95;96.45;;;;;;;3.43;100.00;102006.75;5020477;28;20063;-65
2024/02/02 09:33:45;;;;;;;105.85;99.55;;;;;;;3.46;100.00;102004.84;5018711;28;20604;-67
2024/02/02 09:36:15;;;;;;;112.65;106.15;;;;;;;3.50;100.00;101998.38;5014340;28;20116;-65
2024/02/02 09:38:57;;;;;;;107.95;101.65;;;;;;;3.51;100.00;102005.28;5023988;28;20049;-65
2024/02/02 09:41:56;;;;;;;108.57;102.30;;;;;;;3.47;100.00;102002.09;5023564;28;20050;-65
2024/02/02 09:44:46;;;;;;;99.05;92.90;;;;;;;3.55;100.00;102006.72;5019181;28;20064;-65
2024/02/02 09:47:42;;;;;;;71.10;66.90;;;;;;;3.53;100.00;102009.44;5024625;28;20163;-65
2024/02/02 09:50:34;;;;;;;73.63;69.13;;;;;;;3.54;100.00;102007.66;5024688;28;20054;-65
2024/02/02 09:53:43;;;;;;;76.13;71.43;;;;;;;3.57;100.00;102004.78;5022610;28;20050;-65
2024/02/02 09:56:20;;;;;;;66.88;62.58;;;;;;;3.59;100.00;102000.22;4942203;29;20057;-65
2024/02/02 09:58:54;;;;;;;69.22;64.72;;;;;;;3.58;100.00;101986.25;4941985;29;20139;-65
2024/02/02 10:01:37;;;;;;;71.95;67.35;;;;;;;3.61;100.00;101993.06;4987440;28;20060;-65
2024/02/02 10:04:16;;;;;;;68.13;63.95;;;;;;;3.63;100.00;101985.88;5023391;28;20049;-65
2024/02/02 10:06:53;;;;;;;73.53;68.70;;;;;;;3.62;100.00;101982.41;5024393;28;20053;-65
2024/02/02 10:09:40;;;;;;;69.38;65.07;;;;;;;3.62;100.00;101986.84;5023024;28;20489;-65
2024/02/02 10:12:15;;;;;;;68.53;64.28;;;;;;;3.66;100.00;101991.72;5023854;28;20313;-65
2024/02/02 10:14:57;;;;;;;71.55;67.22;;;;;;;3.68;100.00;101981.88;5024812;28;20059;-65
2024/02/02 10:17:36;;;;;;;73.97;69.57;;;;;;;3.63;100.00;101983.22;5012501;28;20053;-65
2024/02/02 10:20:18;;;;;;;66.38;62.28;;;;;;;3.65;100.00;101990.03;5022142;28;20170;-67
2024/02/02 10:23:08;;;;;;;63.13;58.67;;;;;;;3.75;100.00;101987.47;5022141;28;20049;-67
2024/02/02 10:25:52;;;;;;;63.20;59.10;;;;;;;3.81;100.00;101988.72;4972823;28;20059;-67
2024/02/02 10:28:35;;;;;;;61.53;57.72;;;;;;;3.85;100.00;101982.25;5004328;28;20144;-67
2024/02/02 10:31:06;;;;;;;;;;;;;;;3.93;100.00;101982.41;5004328;28;20477;-67
2024/02/02 10:33:49;;;;;;;59.28;55.67;;;;;;;3.95;100.00;101980.50;4997011;28;19932;-67
2024/02/02 10:36:30;;;;;;;57.88;54.28;;;;;;;3.98;100.00;101980.25;4998702;28;20057;-67
2024/02/02 10:39:14;;;;;;;58.05;54.28;;;;;;;4.03;100.00;101983.31;4999006;28;20057;-67
2024/02/02 10:42:10;;;;;;;55.70;52.20;;;;;;;4.08;100.00;101988.16;4999436;28;20107;-67
2024/02/02 10:44:50;;;;;;;53.28;49.83;;;;;;;4.05;100.00;101981.38;5000361;28;20049;-67
2024/02/02 10:47:31;;;;;;;48.03;45.03;;;;;;;4.07;100.00;101976.81;4995861;28;20457;-66
2024/02/02 10:50:08;;;;;;;48.83;45.65;;;;;;;4.11;100.00;101972.13;5004303;28;20608;-65
2024/02/02 10:52:45;;;;;;;46.72;43.80;;;;;;;4.09;100.00;101966.19;4999107;28;20108;-65
2024/02/02 10:55:25;;;;;;;42.78;40.28;;;;;;;4.08;100.00;101962.69;4995888;28;20077;-65
2024/02/02 10:58:03;;;;;;;47.92;45.03;;;;;;;4.07;100.00;101960.22;4989684;28;20056;-65
2024/02/02 11:00:38;;;;;;;44.08;41.47;;;;;;;4.06;100.00;101964.66;4995405;28;20050;-65
2024/02/02 11:03:18;;;;;;;45.78;43.08;;;;;;;4.00;100.00;101966.97;4991372;28;20581;-67
2024/02/02 11:05:55;;;;;;;43.25;40.75;;;;;;;3.99;100.00;101960.88;4995276;28;20747;-67
2024/02/02 11:08:23;;;;;;;44.72;42.13;;;;;;;3.99;100.00;101970.56;4994194;28;20068;-65
2024/02/02 11:10:59;;;;;;;44.90;42.10;;;;;;;4.00;100.00;101961.72;4992048;28;20054;-67
2024/02/02 11:13:36;;;;;;;45.38;42.60;;;;;;;3.97;100.00;101965.44;4996661;28;20078;-65
2024/02/02 11:16:12;;;;;;;45.28;42.47;;;;;;;4.00;100.00;101966.97;4994638;28;20058;-65
2024/02/02 11:18:53;;;;;;;43.05;40.45;;;;;;;3.97;100.00;101964.63;4998966;28;20056;-63